createdAt,value
2016-02-10T00:00:07.165Z,8.43
2016-02-10T00:01:07.902Z,8.43
2016-02-10T00:02:07.920Z,8.44
2016-02-10T00:03:07.908Z,8.43
2016-02-10T00:04:07.910Z,8.44
2016-02-10T00:05:07.913Z,8.38
2016-02-10T00:06:07.901Z,8.43
2016-02-10T00:07:07.903Z,8.45
2016-02-10T00:08:07.909Z,8.41
2016-02-10T00:09:07.927Z,8.47
2016-02-10T00:10:07.897Z,8.4
2016-02-10T00:11:07.917Z,8.44
2016-02-10T00:12:07.904Z,8.43
2016-02-10T00:13:07.891Z,8.47
2016-02-10T00:14:07.909Z,8.45
2016-02-10T00:15:07.897Z,8.44
2016-02-10T00:16:07.915Z,8.44
2016-02-10T00:17:07.892Z,8.45
2016-02-10T00:18:07.911Z,8.38
2016-02-10T00:19:07.164Z,8.4
2016-02-10T00:20:07.931Z,8.41
2016-02-10T00:21:07.903Z,8.3
2016-02-10T00:22:07.890Z,8.28
2016-02-10T00:23:07.955Z,8.28
2016-02-10T00:24:07.911Z,8.36
2016-02-10T00:25:07.902Z,8.22
2016-02-10T00:26:07.889Z,8.2
2016-02-10T00:27:07.908Z,8.22
2016-02-10T00:28:07.895Z,8.19
2016-02-10T00:29:07.897Z,8.19
2016-02-10T00:30:07.884Z,8.04
2016-02-10T00:31:07.903Z,8.02
2016-02-10T00:32:07.905Z,8.05
2016-02-10T00:33:07.894Z,7.97
2016-02-10T00:34:07.896Z,7.97
2016-02-10T00:35:07.883Z,8
2016-02-10T00:36:07.901Z,7.92
2016-02-10T00:37:07.920Z,7.93
2016-02-10T00:38:07.891Z,7.92
2016-02-10T00:39:07.893Z,7.82
2016-02-10T00:40:07.899Z,7.85
2016-02-10T00:41:07.887Z,7.82
2016-02-10T00:42:07.889Z,7.83
2016-02-10T00:43:07.908Z,7.75
2016-02-10T00:44:07.879Z,7.9
2016-02-10T00:45:07.881Z,7.8
2016-02-10T00:46:07.885Z,7.79
2016-02-10T00:47:07.887Z,7.82
2016-02-10T00:48:07.874Z,7.74
2016-02-10T00:49:07.877Z,7.69
2016-02-10T00:50:07.895Z,7.71
2016-02-10T00:51:07.867Z,7.71
2016-02-10T00:52:07.870Z,7.61
2016-02-10T00:53:07.887Z,7.61
2016-02-10T00:54:07.874Z,7.64
2016-02-10T00:55:07.862Z,7.61
2016-02-10T00:56:07.895Z,7.6
2016-02-10T00:57:07.867Z,7.64
2016-02-10T00:58:07.855Z,7.52
2016-02-10T00:59:07.872Z,7.58
2016-02-10T01:00:07.860Z,7.5
2016-02-10T01:01:07.863Z,7.6
2016-02-10T01:02:07.865Z,7.43
2016-02-10T01:03:07.868Z,7.53
2016-02-10T01:04:07.871Z,7.39
2016-02-10T01:05:07.858Z,7.5
2016-02-10T01:06:07.860Z,7.4
2016-02-10T01:07:07.878Z,7.43
2016-02-10T01:08:07.850Z,7.4
2016-02-10T01:09:07.852Z,7.39
2016-02-10T01:10:07.856Z,7.42
2016-02-10T01:11:07.845Z,7.39
2016-02-10T01:12:07.847Z,7.3
2016-02-10T01:13:07.850Z,7.35
2016-02-10T01:14:07.837Z,7.37
2016-02-10T01:15:07.855Z,7.37
2016-02-10T01:16:07.858Z,7.34
2016-02-10T01:17:07.845Z,7.31
2016-02-10T01:18:07.831Z,7.37
2016-02-10T01:19:07.850Z,7.2
2016-02-10T01:20:07.837Z,7.32
2016-02-10T01:21:07.824Z,7.24
2016-02-10T01:22:07.843Z,7.21
2016-02-10T01:23:07.830Z,7.27
2016-02-10T01:24:07.832Z,7.21
2016-02-10T01:25:07.850Z,7.25
2016-02-10T01:26:07.825Z,7.25
2016-02-10T01:27:07.812Z,7.16
2016-02-10T01:28:07.830Z,7.24
2016-02-10T01:29:07.817Z,7.13
2016-02-10T01:30:07.836Z,7.12
2016-02-10T01:31:07.822Z,7.12
2016-02-10T01:32:07.825Z,7.15
2016-02-10T01:33:07.828Z,7.17
2016-02-10T01:34:07.816Z,7.12
2016-02-10T01:35:07.835Z,7.15
2016-02-10T01:36:07.666Z,7.13
2016-02-10T01:37:07.809Z,7.12
2016-02-10T01:38:07.811Z,7.06
2016-02-10T01:39:07.799Z,7.06
2016-02-10T01:40:07.816Z,7.09
2016-02-10T01:41:07.645Z,7.06
2016-02-10T01:42:07.805Z,7.09
2016-02-10T01:43:07.792Z,7.06
2016-02-10T01:44:07.796Z,7.12
2016-02-10T01:45:07.782Z,7.09
2016-02-10T01:46:07.800Z,7.12
2016-02-10T01:47:07.788Z,7.09
2016-02-10T01:48:07.790Z,7.09
2016-02-10T01:49:07.792Z,7.02
2016-02-10T01:50:07.781Z,7.07
2016-02-10T01:51:07.784Z,7.05
2016-02-10T01:52:07.802Z,7.05
2016-02-10T01:53:07.774Z,7.06
2016-02-10T01:54:07.776Z,6.97
2016-02-10T01:55:07.623Z,6.95
2016-02-10T01:56:07.797Z,6.91
2016-02-10T01:57:07.753Z,6.97
2016-02-10T01:58:07.770Z,6.97
2016-02-10T01:59:07.760Z,6.94
2016-02-10T02:00:07.762Z,6.84
2016-02-10T02:01:07.780Z,6.88
2016-02-10T02:02:07.752Z,6.89
2016-02-10T02:03:07.754Z,6.76
2016-02-10T02:04:07.757Z,6.81
2016-02-10T02:05:07.760Z,6.84
2016-02-10T02:06:07.747Z,6.8
2016-02-10T02:07:07.751Z,6.87
2016-02-10T02:08:07.754Z,6.79
2016-02-10T02:09:07.742Z,6.77
2016-02-10T02:10:07.745Z,6.69
2016-02-10T02:11:07.731Z,6.74
2016-02-10T02:12:07.736Z,6.7
2016-02-10T02:13:07.738Z,6.7
2016-02-10T02:14:07.741Z,6.69
2016-02-10T02:15:07.744Z,6.67
2016-02-10T02:16:07.731Z,6.56
2016-02-10T02:17:07.749Z,6.62
2016-02-10T02:18:07.737Z,6.59
2016-02-10T02:19:07.723Z,6.59
2016-02-10T02:20:07.726Z,6.55
2016-02-10T02:21:07.729Z,6.55
2016-02-10T02:22:07.715Z,6.58
2016-02-10T02:23:07.718Z,6.55
2016-02-10T02:24:07.737Z,6.58
2016-02-10T02:25:07.708Z,6.52
2016-02-10T02:26:07.711Z,6.58
2016-02-10T02:27:07.699Z,6.49
2016-02-10T02:28:07.701Z,6.48
2016-02-10T02:29:07.704Z,6.55
2016-02-10T02:30:07.707Z,6.48
2016-02-10T02:31:07.710Z,6.46
2016-02-10T02:32:07.697Z,6.46
2016-02-10T02:33:07.684Z,6.4
2016-02-10T02:34:07.702Z,6.44
2016-02-10T02:35:07.689Z,6.44
2016-02-10T02:36:07.676Z,6.44
2016-02-10T02:37:07.694Z,6.41
2016-02-10T02:38:07.682Z,6.36
2016-02-10T02:39:07.669Z,6.46
2016-02-10T02:40:07.687Z,6.44
2016-02-10T02:41:07.675Z,6.31
2016-02-10T02:42:07.661Z,6.37
2016-02-10T02:43:07.666Z,6.31
2016-02-10T02:44:07.670Z,6.33
2016-02-10T02:45:07.656Z,6.25
2016-02-10T02:46:07.659Z,6.15
2016-02-10T02:47:07.647Z,6.17
2016-02-10T02:48:07.664Z,6.22
2016-02-10T02:49:07.652Z,6.21
2016-02-10T02:50:07.639Z,6.25
2016-02-10T02:51:07.657Z,6.18
2016-02-10T02:52:07.646Z,6.34
2016-02-10T02:53:07.629Z,6.25
2016-02-10T02:54:07.638Z,6.15
2016-02-10T02:55:07.598Z,6.27
2016-02-10T02:56:07.698Z,6.19
2016-02-10T02:57:07.581Z,6.19
2016-02-10T02:58:07.574Z,6.17
2016-02-10T02:59:07.556Z,6.19
2016-02-10T03:00:07.556Z,6.15
2016-02-10T03:01:07.555Z,6.28
2016-02-10T03:02:07.554Z,6.11
2016-02-10T03:03:07.536Z,6.14
2016-02-10T03:04:07.538Z,6.15
2016-02-10T03:05:07.523Z,6.14
2016-02-10T03:06:07.525Z,6.11
2016-02-10T03:07:07.526Z,6.03
2016-02-10T03:08:07.511Z,6.15
2016-02-10T03:09:07.515Z,6.11
2016-02-10T03:10:07.502Z,6
2016-02-10T03:11:07.504Z,6.03
2016-02-10T03:12:07.507Z,6.01
2016-02-10T03:13:07.499Z,6.06
2016-02-10T03:14:07.486Z,5.99
2016-02-10T03:15:07.489Z,5.97
2016-02-10T03:16:07.491Z,5.99
2016-02-10T03:17:07.495Z,5.99
2016-02-10T03:18:07.481Z,6
2016-02-10T03:19:07.483Z,6.03
2016-02-10T03:20:07.474Z,5.99
2016-02-10T03:21:07.477Z,5.97
2016-02-10T03:22:07.463Z,5.99
2016-02-10T03:23:07.466Z,5.96
2016-02-10T03:24:07.453Z,5.96
2016-02-10T03:25:07.487Z,5.93
2016-02-10T03:26:07.458Z,5.96
2016-02-10T03:27:07.477Z,5.96
2016-02-10T03:28:07.449Z,5.94
2016-02-10T03:29:07.451Z,5.91
2016-02-10T03:30:07.438Z,5.96
2016-02-10T03:31:07.456Z,5.82
2016-02-10T03:32:07.444Z,5.9
2016-02-10T03:33:07.446Z,5.93
2016-02-10T03:34:07.433Z,5.9
2016-02-10T03:35:07.421Z,5.85
2016-02-10T03:36:07.423Z,5.85
2016-02-10T03:37:07.442Z,5.79
2016-02-10T03:38:07.429Z,5.76
2016-02-10T03:39:07.415Z,5.86
2016-02-10T03:40:07.434Z,5.79
2016-02-10T03:41:07.406Z,5.81
2016-02-10T03:42:07.408Z,5.82
2016-02-10T03:43:07.411Z,5.72
2016-02-10T03:44:07.435Z,5.83
2016-02-10T03:45:07.390Z,5.81
2016-02-10T03:46:07.393Z,5.74
2016-02-10T03:47:07.396Z,5.75
2016-02-10T03:48:07.398Z,5.75
2016-02-10T03:49:07.387Z,5.72
2016-02-10T03:50:07.390Z,5.78
2016-02-10T03:51:07.377Z,5.74
2016-02-10T03:52:07.396Z,5.71
2016-02-10T03:53:07.383Z,5.65
2016-02-10T03:54:07.369Z,5.71
2016-02-10T03:55:07.372Z,5.72
2016-02-10T03:56:07.375Z,5.58
2016-02-10T03:57:07.377Z,5.72
2016-02-10T03:58:07.365Z,5.74
2016-02-10T03:59:07.352Z,5.58
2016-02-10T04:00:07.355Z,5.63
2016-02-10T04:01:07.373Z,5.64
2016-02-10T04:02:07.345Z,5.54
2016-02-10T04:03:07.348Z,5.65
2016-02-10T04:04:07.271Z,5.67
2016-02-10T04:05:07.337Z,5.58
2016-02-10T04:06:07.339Z,5.64
2016-02-10T04:07:07.343Z,5.54
2016-02-10T04:08:07.329Z,5.6
2016-02-10T04:09:07.332Z,5.54
2016-02-10T04:10:07.336Z,5.6
2016-02-10T04:11:07.323Z,5.54
2016-02-10T04:12:07.326Z,5.46
2016-02-10T04:13:07.328Z,5.57
2016-02-10T04:14:07.299Z,5.54
2016-02-10T04:15:07.318Z,5.53
2016-02-10T04:16:07.291Z,5.53
2016-02-10T04:17:07.309Z,5.51
2016-02-10T04:18:07.297Z,5.56
2016-02-10T04:19:07.300Z,5.51
2016-02-10T04:20:07.286Z,5.49
2016-02-10T04:21:07.305Z,5.45
2016-02-10T04:22:06.526Z,5.49
2016-02-10T04:23:07.295Z,5.51
2016-02-10T04:24:07.281Z,5.46
2016-02-10T04:25:07.269Z,5.53
2016-02-10T04:26:07.277Z,5.49
2016-02-10T04:27:07.279Z,5.48
2016-02-10T04:28:07.250Z,5.48
2016-02-10T04:29:07.269Z,5.4
2016-02-10T04:30:07.287Z,5.48
2016-02-10T04:31:07.258Z,5.51
2016-02-10T04:32:07.246Z,5.36
2016-02-10T04:33:07.248Z,5.48
2016-02-10T04:34:07.266Z,5.42
2016-02-10T04:35:07.237Z,5.39
2016-02-10T04:36:07.241Z,5.31
2016-02-10T04:37:07.243Z,5.36
2016-02-10T04:38:07.231Z,5.38
2016-02-10T04:39:07.218Z,5.36
2016-02-10T04:40:07.236Z,5.43
2016-02-10T04:41:07.223Z,5.28
2016-02-10T04:42:07.210Z,5.39
2016-02-10T04:43:07.229Z,5.38
2016-02-10T04:44:07.216Z,5.38
2016-02-10T04:45:07.218Z,5.33
2016-02-10T04:46:07.194Z,5.39
2016-02-10T04:47:07.197Z,5.3
2016-02-10T04:48:07.200Z,5.28
2016-02-10T04:49:07.186Z,5.3
2016-02-10T04:50:07.205Z,5.33
2016-02-10T04:51:07.192Z,5.21
2016-02-10T04:52:07.179Z,5.28
2016-02-10T04:53:07.182Z,5.22
2016-02-10T04:54:07.170Z,5.28
2016-02-10T04:55:07.172Z,5.25
2016-02-10T04:56:07.192Z,5.24
2016-02-10T04:57:07.334Z,5.24
2016-02-10T04:58:07.149Z,5.21
2016-02-10T04:59:07.152Z,5.2
2016-02-10T05:00:07.155Z,5.17
2016-02-10T05:01:07.173Z,5.17
2016-02-10T05:02:07.145Z,5.13
2016-02-10T05:03:07.133Z,5.18
2016-02-10T05:04:07.150Z,5.17
2016-02-10T05:05:07.139Z,5.13
2016-02-10T05:06:07.125Z,5.21
2016-02-10T05:07:07.127Z,5.15
2016-02-10T05:08:07.131Z,5.13
2016-02-10T05:09:07.117Z,5.09
2016-02-10T05:10:07.120Z,5.15
2016-02-10T05:11:07.111Z,5.09
2016-02-10T05:12:07.113Z,5.18
2016-02-10T05:13:07.116Z,5.12
2016-02-10T05:14:07.103Z,5.03
2016-02-10T05:15:07.105Z,5
2016-02-10T05:16:07.091Z,5.12
2016-02-10T05:17:07.111Z,5.04
2016-02-10T05:18:07.089Z,4.99
2016-02-10T05:19:07.092Z,5.15
2016-02-10T05:20:07.095Z,5.04
2016-02-10T05:21:07.081Z,5.02
2016-02-10T05:22:07.069Z,5
2016-02-10T05:23:07.071Z,5.02
2016-02-10T05:24:07.073Z,5.02
2016-02-10T05:25:07.061Z,4.99
2016-02-10T05:26:07.079Z,5.02
2016-02-10T05:27:07.051Z,5.04
2016-02-10T05:28:07.054Z,5.04
2016-02-10T05:29:07.088Z,4.94
2016-02-10T05:30:07.043Z,4.96
2016-02-10T05:31:07.047Z,5.03
2016-02-10T05:32:07.049Z,4.91
2016-02-10T05:33:07.036Z,4.96
2016-02-10T05:34:07.040Z,4.92
2016-02-10T05:35:07.026Z,4.92
2016-02-10T05:36:07.029Z,4.92
2016-02-10T05:37:07.018Z,4.96
2016-02-10T05:38:07.020Z,4.97
2016-02-10T05:39:07.024Z,4.94
2016-02-10T05:40:07.011Z,4.97
2016-02-10T05:41:07.013Z,4.99
2016-02-10T05:42:07.031Z,5
2016-02-10T05:43:07.003Z,4.89
2016-02-10T05:44:07.005Z,4.85
2016-02-10T05:45:07.007Z,4.94
2016-02-10T05:46:06.996Z,5
2016-02-10T05:47:06.998Z,4.97
2016-02-10T05:48:06.987Z,4.96
2016-02-10T05:49:06.974Z,4.99
2016-02-10T05:50:06.976Z,4.96
2016-02-10T05:51:06.964Z,5
2016-02-10T05:52:06.966Z,4.96
2016-02-10T05:53:06.984Z,4.82
2016-02-10T05:54:06.957Z,4.91
2016-02-10T05:55:06.959Z,4.92
2016-02-10T05:56:06.978Z,4.86
2016-02-10T05:57:06.948Z,4.85
2016-02-10T05:58:06.936Z,4.92
2016-02-10T05:59:06.954Z,4.88
2016-02-10T06:00:06.941Z,4.84
2016-02-10T06:01:06.944Z,4.82
2016-02-10T06:02:06.930Z,4.8
2016-02-10T06:03:06.934Z,4.86
2016-02-10T06:04:06.922Z,4.92
2016-02-10T06:05:06.925Z,4.89
2016-02-10T06:06:06.927Z,4.88
2016-02-10T06:07:06.930Z,4.88
2016-02-10T06:08:06.901Z,4.84
2016-02-10T06:09:06.903Z,4.88
2016-02-10T06:10:06.906Z,4.8
2016-02-10T06:11:06.894Z,4.88
2016-02-10T06:12:06.899Z,4.84
2016-02-10T06:13:06.902Z,4.77
2016-02-10T06:14:06.888Z,4.8
2016-02-10T06:15:06.891Z,4.72
2016-02-10T06:16:06.880Z,4.72
2016-02-10T06:17:06.898Z,4.73
2016-02-10T06:18:06.870Z,4.75
2016-02-10T06:19:06.872Z,4.75
2016-02-10T06:20:06.891Z,4.77
2016-02-10T06:21:06.863Z,4.78
2016-02-10T06:22:06.866Z,4.75
2016-02-10T06:23:06.962Z,4.82
2016-02-10T06:24:06.854Z,4.8
2016-02-10T06:25:06.843Z,4.75
2016-02-10T06:26:06.860Z,4.7
2016-02-10T06:27:06.848Z,4.69
2016-02-10T06:28:06.835Z,4.75
2016-02-10T06:29:06.838Z,4.73
2016-02-10T06:30:06.826Z,4.77
2016-02-10T06:31:06.843Z,4.72
2016-02-10T06:32:06.815Z,4.65
2016-02-10T06:33:06.818Z,4.72
2016-02-10T06:34:06.055Z,4.67
2016-02-10T06:35:06.807Z,4.7
2016-02-10T06:36:06.810Z,4.69
2016-02-10T06:37:06.813Z,4.72
2016-02-10T06:38:06.800Z,4.7
2016-02-10T06:39:06.803Z,4.67
2016-02-10T06:40:06.790Z,4.7
2016-02-10T06:41:06.042Z,4.65
2016-02-10T06:42:06.795Z,4.67
2016-02-10T06:43:06.782Z,4.65
2016-02-10T06:44:06.784Z,4.63
2016-02-10T06:45:06.788Z,4.65
2016-02-10T06:46:06.775Z,4.65
2016-02-10T06:47:06.796Z,4.6
2016-02-10T06:48:06.767Z,4.58
2016-02-10T06:49:06.754Z,4.67
2016-02-10T06:50:06.757Z,4.69
2016-02-10T06:51:06.760Z,4.6
2016-02-10T06:52:06.747Z,4.58
2016-02-10T06:53:06.733Z,4.55
2016-02-10T06:54:06.737Z,4.63
2016-02-10T06:55:06.756Z,4.55
2016-02-10T06:56:06.760Z,4.63
2016-02-10T06:57:06.746Z,4.66
2016-02-10T06:58:06.734Z,4.63
2016-02-10T06:59:06.737Z,4.69
2016-02-10T07:00:06.724Z,4.6
2016-02-10T07:01:06.726Z,4.58
2016-02-10T07:02:06.713Z,4.66
2016-02-10T07:03:06.731Z,4.63
2016-02-10T07:04:05.969Z,4.67
2016-02-10T07:05:06.692Z,4.58
2016-02-10T07:06:06.694Z,4.63
2016-02-10T07:07:06.698Z,4.6
2016-02-10T07:08:06.700Z,4.65
2016-02-10T07:09:06.687Z,4.67
2016-02-10T07:10:06.690Z,4.59
2016-02-10T07:11:06.678Z,4.55
2016-02-10T07:12:06.694Z,4.6
2016-02-10T07:13:06.669Z,4.72
2016-02-10T07:14:06.671Z,4.66
2016-02-10T07:15:06.690Z,4.66
2016-02-10T07:16:06.661Z,4.67
2016-02-10T07:17:06.663Z,4.65
2016-02-10T07:18:06.658Z,4.67
2016-02-10T07:19:06.661Z,4.73
2016-02-10T07:20:06.648Z,4.72
2016-02-10T07:21:06.650Z,4.73
2016-02-10T07:22:06.637Z,4.77
2016-02-10T07:23:06.655Z,4.77
2016-02-10T07:24:06.642Z,4.77
2016-02-10T07:25:06.630Z,4.82
2016-02-10T07:26:06.647Z,4.75
2016-02-10T07:27:06.619Z,4.78
2016-02-10T07:28:06.622Z,4.77
2016-02-10T07:29:06.624Z,4.78
2016-02-10T07:30:06.613Z,4.82
2016-02-10T07:31:06.631Z,4.78
2016-02-10T07:32:06.603Z,4.88
2016-02-10T07:33:06.605Z,4.77
2016-02-10T07:34:06.608Z,4.85
2016-02-10T07:35:06.595Z,4.82
2016-02-10T07:36:06.582Z,4.89
2016-02-10T07:37:06.585Z,4.85
2016-02-10T07:38:06.590Z,4.85
2016-02-10T07:39:06.592Z,4.91
2016-02-10T07:40:06.579Z,4.91
2016-02-10T07:41:06.582Z,4.91
2016-02-10T07:42:06.568Z,5
2016-02-10T07:43:06.571Z,4.92
2016-02-10T07:44:06.559Z,5.03
2016-02-10T07:45:06.562Z,4.99
2016-02-10T07:46:06.565Z,5
2016-02-10T07:47:06.568Z,5.03
2016-02-10T07:48:06.586Z,4.97
2016-02-10T07:49:06.557Z,4.92
2016-02-10T07:50:06.545Z,5.04
2016-02-10T07:51:06.735Z,5.03
2016-02-10T07:52:06.880Z,5.04
2016-02-10T07:53:06.757Z,5.06
2016-02-10T07:54:06.885Z,4.94
2016-02-10T07:55:06.888Z,5.13
2016-02-10T07:56:07.374Z,5.09
2016-02-10T07:57:06.986Z,5.07
2016-02-10T07:58:06.988Z,5.12
2016-02-10T07:59:06.523Z,5.17
2016-02-10T08:00:07.134Z,5.18
2016-02-10T08:01:06.888Z,5.17
2016-02-10T08:02:06.718Z,5.13
2016-02-10T08:03:06.895Z,5.2
2016-02-10T08:04:06.804Z,5.27
2016-02-10T08:05:06.853Z,5.24
2016-02-10T08:06:06.686Z,5.24
2016-02-10T08:07:06.783Z,5.28
2016-02-10T08:08:06.800Z,5.25
2016-02-10T08:09:06.960Z,5.28
2016-02-10T08:10:06.806Z,5.35
2016-02-10T08:11:06.716Z,5.42
2016-02-10T08:12:06.749Z,5.4
2016-02-10T08:13:06.783Z,5.42
2016-02-10T08:14:06.944Z,5.46
2016-02-10T08:15:06.916Z,5.36
2016-02-10T08:16:06.716Z,5.48
2016-02-10T08:17:06.688Z,5.49
2016-02-10T08:18:06.752Z,5.43
2016-02-10T08:19:06.870Z,5.51
2016-02-10T08:20:06.748Z,5.48
2016-02-10T08:21:06.859Z,5.51
2016-02-10T08:22:06.862Z,5.54
2016-02-10T08:23:06.772Z,5.64
2016-02-10T08:24:06.759Z,5.56
2016-02-10T08:25:06.840Z,5.51
2016-02-10T08:26:06.608Z,5.65
2016-02-10T08:27:06.735Z,5.64
2016-02-10T08:28:06.645Z,5.56
2016-02-10T08:29:06.789Z,5.71
2016-02-10T08:30:06.885Z,5.58
2016-02-10T08:31:06.654Z,5.71
2016-02-10T08:32:06.642Z,5.64
2016-02-10T08:33:06.706Z,5.75
2016-02-10T08:34:06.726Z,5.81
2016-02-10T08:35:06.869Z,5.79
2016-02-10T08:36:06.605Z,5.78
2016-02-10T08:37:06.609Z,5.78
2016-02-10T08:38:06.814Z,5.89
2016-02-10T08:39:06.662Z,5.82
2016-02-10T08:40:05.946Z,5.76
2016-02-10T08:41:06.557Z,5.81
2016-02-10T08:42:06.638Z,5.91
2016-02-10T08:43:06.766Z,5.99
2016-02-10T08:44:06.706Z,6
2016-02-10T08:45:05.991Z,5.99
2016-02-10T08:46:06.712Z,6.06
2016-02-10T08:47:06.590Z,6.08
2016-02-10T08:48:06.577Z,6.03
2016-02-10T08:49:06.784Z,6.03
2016-02-10T08:50:06.652Z,6.06
2016-02-10T08:51:06.670Z,6.12
2016-02-10T08:52:06.610Z,6.14
2016-02-10T08:53:06.613Z,6.14
2016-02-10T08:54:06.757Z,6.12
2016-02-10T08:55:06.728Z,6.17
2016-02-10T08:56:06.700Z,6.25
2016-02-10T08:57:06.750Z,6.3
2016-02-10T08:58:06.784Z,6.21
2016-02-10T08:59:06.631Z,6.22
2016-02-10T09:00:05.773Z,6.18
2016-02-10T09:01:06.886Z,6.27
2016-02-10T09:02:06.546Z,6.22
2016-02-10T09:03:06.829Z,6.28
2016-02-10T09:04:06.989Z,6.31
2016-02-10T09:05:06.678Z,6.3
2016-02-10T09:06:06.745Z,6.31
2016-02-10T09:07:06.497Z,6.37
2016-02-10T09:08:06.703Z,6.48
2016-02-10T09:09:06.892Z,6.43
2016-02-10T09:10:06.645Z,6.41
2016-02-10T09:11:06.554Z,6.43
2016-02-10T09:12:06.556Z,6.41
2016-02-10T09:13:06.434Z,6.46
2016-02-10T09:14:06.516Z,6.51
2016-02-10T09:15:06.582Z,6.56
2016-02-10T09:16:06.662Z,6.58
2016-02-10T09:17:06.525Z,6.66
2016-02-10T09:18:06.402Z,6.59
2016-02-10T09:19:06.608Z,6.61
2016-02-10T09:20:06.767Z,6.69
2016-02-10T09:21:06.696Z,6.71
2016-02-10T09:22:06.667Z,6.71
2016-02-10T09:23:06.545Z,6.67
2016-02-10T09:24:06.594Z,6.7
2016-02-10T09:25:06.644Z,6.74
2016-02-10T09:26:06.694Z,6.73
2016-02-10T09:27:06.931Z,6.81
2016-02-10T09:28:06.606Z,6.77
2016-02-10T09:29:06.561Z,6.71
2016-02-10T09:30:06.626Z,6.76
2016-02-10T09:31:06.630Z,6.8
2016-02-10T09:32:06.758Z,6.89
2016-02-10T09:33:05.917Z,6.92
2016-02-10T09:34:06.608Z,6.88
2016-02-10T09:35:06.735Z,6.97
2016-02-10T09:36:06.613Z,6.85
2016-02-10T09:37:06.788Z,6.94
2016-02-10T09:38:06.602Z,6.98
2016-02-10T09:39:26.013Z,7.05
2016-02-10T09:40:06.623Z,6.99
2016-02-10T09:41:06.986Z,6.98
2016-02-10T09:42:06.302Z,7.03
2016-02-10T09:43:06.616Z,7.09
2016-02-10T09:44:06.650Z,7.07
2016-02-10T09:45:06.700Z,7.02
2016-02-10T09:46:06.594Z,7.12
2016-02-10T09:47:06.502Z,7.13
2016-02-10T09:48:06.989Z,7.21
2016-02-10T09:49:05.821Z,7.24
2016-02-10T09:50:06.529Z,7.2
2016-02-10T09:51:06.641Z,7.16
2016-02-10T09:52:06.596Z,7.23
2016-02-10T09:53:05.788Z,7.16
2016-02-10T09:54:06.776Z,7.25
2016-02-10T09:55:06.544Z,7.25
2016-02-10T09:56:07.172Z,7.34
2016-02-10T09:57:06.547Z,7.31
2016-02-10T09:58:06.658Z,7.35
2016-02-10T09:59:06.505Z,7.35
2016-02-10T10:00:06.570Z,7.4
2016-02-10T10:01:06.541Z,7.34
2016-02-10T10:02:07.044Z,7.4
2016-02-10T10:03:06.499Z,7.31
2016-02-10T10:04:06.612Z,7.42
2016-02-10T10:05:06.535Z,7.35
2016-02-10T10:06:06.681Z,7.31
2016-02-10T10:07:06.652Z,7.43
2016-02-10T10:08:06.733Z,7.37
2016-02-10T10:09:06.580Z,7.48
2016-02-10T10:10:06.675Z,7.37
2016-02-10T10:11:06.694Z,7.39
2016-02-10T10:12:05.806Z,7.46
2016-02-10T10:13:06.544Z,7.52
2016-02-10T10:14:20.626Z,7.48
2016-02-10T10:15:06.550Z,7.57
2016-02-10T10:16:06.506Z,7.53
2016-02-10T10:17:06.697Z,7.57
2016-02-10T10:18:06.450Z,7.58
2016-02-10T10:19:06.671Z,7.58
2016-02-10T10:20:06.487Z,7.58
2016-02-10T10:21:06.771Z,7.63
2016-02-10T10:22:06.460Z,7.61
2016-02-10T10:23:06.450Z,7.72
2016-02-10T10:24:06.546Z,7.69
2016-02-10T10:25:06.549Z,7.71
2016-02-10T10:26:06.537Z,7.69
2016-02-10T10:27:06.695Z,7.72
2016-02-10T10:28:06.526Z,7.75
2016-02-10T10:29:06.419Z,7.85
2016-02-10T10:30:06.562Z,7.83
2016-02-10T10:31:06.565Z,7.74
2016-02-10T10:32:06.475Z,7.85
2016-02-10T10:33:06.539Z,7.89
2016-02-10T10:34:06.574Z,7.92
2016-02-10T10:35:06.484Z,7.79
2016-02-10T10:36:06.705Z,7.92
2016-02-10T10:37:06.598Z,7.89
2016-02-10T10:38:06.585Z,8.05
2016-02-10T10:39:06.666Z,7.97
2016-02-10T10:40:06.512Z,7.95
2016-02-10T10:41:06.296Z,8
2016-02-10T10:42:06.284Z,8.04
2016-02-10T10:43:06.287Z,8
2016-02-10T10:44:06.273Z,8.05
2016-02-10T10:45:06.277Z,8.05
2016-02-10T10:46:06.154Z,8.02
2016-02-10T10:47:06.298Z,8.1
2016-02-10T10:48:06.284Z,8.16
2016-02-10T10:49:06.272Z,8.05
2016-02-10T10:50:06.292Z,8.12
2016-02-10T10:51:06.279Z,8.07
2016-02-10T10:52:06.286Z,8.04
2016-02-10T10:53:06.323Z,8.1
2016-02-10T10:54:06.279Z,8.07
2016-02-10T10:55:06.266Z,8.2
2016-02-10T10:56:06.315Z,8.15
2016-02-10T10:57:06.287Z,8.19
2016-02-10T10:58:06.977Z,8.11
2016-02-10T10:59:07.136Z,8.15
2016-02-10T11:00:06.499Z,8.16
2016-02-10T11:01:06.423Z,8.15
2016-02-10T11:02:06.410Z,8.19
2016-02-10T11:03:06.413Z,8.16
2016-02-10T11:04:06.446Z,8.15
2016-02-10T11:05:06.527Z,8.12
2016-02-10T11:06:06.405Z,8.07
2016-02-10T11:07:06.393Z,8.12
2016-02-10T11:08:06.505Z,8.05
2016-02-10T11:09:06.460Z,8.11
2016-02-10T11:10:06.557Z,8.07
2016-02-10T11:11:06.637Z,8.05
2016-02-10T11:12:06.484Z,8.05
2016-02-10T11:13:06.503Z,8.12
2016-02-10T11:14:06.567Z,8.11
2016-02-10T11:15:06.523Z,8.02
2016-02-10T11:16:06.591Z,8.08
2016-02-10T11:17:06.359Z,8.07
2016-02-10T11:18:05.737Z,8.11
2016-02-10T11:19:06.583Z,8.11
2016-02-10T11:20:06.432Z,8.12
2016-02-10T11:21:06.387Z,8.12
2016-02-10T11:22:06.577Z,8.11
2016-02-10T11:23:06.658Z,8.15
2016-02-10T11:24:06.428Z,8.23
2016-02-10T11:25:06.462Z,8.25
2016-02-10T11:26:06.403Z,8.2
2016-02-10T11:27:06.405Z,8.3
2016-02-10T11:28:06.392Z,8.28
2016-02-10T11:29:06.676Z,8.2
2016-02-10T11:30:06.475Z,8.26
2016-02-10T11:31:06.416Z,8.28
2016-02-10T11:32:06.326Z,8.34
2016-02-10T11:33:06.454Z,8.37
2016-02-10T11:34:06.534Z,8.33
2016-02-10T11:35:06.383Z,8.41
2016-02-10T11:36:06.292Z,8.44
2016-02-10T11:37:06.310Z,8.4
2016-02-10T11:38:07.000Z,8.4
2016-02-10T11:40:06.365Z,8.38
2016-02-10T11:41:06.571Z,8.34
2016-02-10T11:42:06.558Z,8.38
2016-02-10T11:43:06.435Z,8.33
2016-02-10T11:44:06.563Z,8.4
2016-02-10T11:45:06.488Z,8.36
2016-02-10T11:46:06.647Z,8.33
2016-02-10T11:47:06.805Z,8.36
2016-02-10T11:48:06.480Z,8.38
2016-02-10T11:49:06.608Z,8.38
2016-02-10T11:50:06.673Z,8.36
2016-02-10T11:51:06.413Z,8.38
2016-02-10T11:52:06.494Z,8.41
2016-02-10T11:53:06.466Z,8.47
2016-02-10T11:54:06.703Z,8.37
2016-02-10T11:55:06.660Z,8.44
2016-02-10T11:56:06.505Z,8.37
2016-02-10T11:57:06.665Z,8.37
2016-02-10T11:58:06.511Z,8.4
2016-02-10T11:59:06.447Z,8.36
2016-02-10T12:00:06.374Z,8.3
2016-02-10T12:01:06.536Z,8.26
2016-02-10T12:02:06.633Z,8.28
2016-02-10T12:03:06.543Z,8.29
2016-02-10T12:04:06.410Z,8.2
2016-02-10T12:05:06.485Z,8.34
2016-02-10T12:06:06.577Z,8.26
2016-02-10T12:07:06.622Z,8.23
2016-02-10T12:08:06.447Z,8.22
2016-02-10T12:09:06.400Z,8.28
2016-02-10T12:10:06.512Z,8.26
2016-02-10T12:11:06.465Z,8.26
2016-02-10T12:12:06.403Z,8.23
2016-02-10T12:13:06.342Z,8.36
2016-02-10T12:14:06.468Z,8.38
2016-02-10T12:15:06.236Z,8.43
2016-02-10T12:16:06.207Z,8.38
2016-02-10T12:17:06.238Z,8.43
2016-02-10T12:18:06.850Z,8.56
2016-02-10T12:19:07.008Z,8.47
2016-02-10T12:20:06.402Z,8.47
2016-02-10T12:21:06.466Z,8.53
2016-02-10T12:22:06.343Z,8.55
2016-02-10T12:23:06.445Z,8.5
2016-02-10T12:24:06.556Z,8.63
2016-02-10T12:25:06.387Z,8.59
2016-02-10T12:26:06.406Z,8.63
2016-02-10T12:27:06.408Z,8.47
2016-02-10T12:28:06.395Z,8.53
2016-02-10T12:29:06.492Z,8.59
2016-02-10T12:30:06.478Z,8.56
2016-02-10T12:31:06.435Z,8.58
2016-02-10T12:32:06.688Z,8.48
2016-02-10T12:33:06.377Z,8.52
2016-02-10T12:34:06.412Z,8.43
2016-02-10T12:35:06.462Z,8.53
2016-02-10T12:36:06.325Z,8.52
2016-02-10T12:37:06.608Z,8.52
2016-02-10T12:38:06.267Z,8.56
2016-02-10T12:39:06.395Z,8.71
2016-02-10T12:40:06.460Z,8.66
2016-02-10T12:41:06.416Z,8.65
2016-02-10T12:42:06.450Z,8.65
2016-02-10T12:43:06.436Z,8.8
2016-02-10T12:44:06.439Z,8.79
2016-02-10T12:45:06.349Z,8.89
2016-02-10T12:46:06.351Z,8.91
2016-02-10T12:47:06.479Z,8.98
2016-02-10T12:48:06.607Z,9.11
2016-02-10T12:49:06.296Z,9.18
2016-02-10T12:50:06.425Z,9.21
2016-02-10T12:51:06.390Z,9.24
2016-02-10T12:52:06.346Z,9.29
2016-02-10T12:53:06.379Z,9.36
2016-02-10T12:54:06.523Z,9.35
2016-02-10T12:55:05.525Z,9.46
2016-02-10T12:56:06.559Z,9.48
2016-02-10T12:57:06.250Z,9.5
2016-02-10T12:58:06.237Z,9.47
2016-02-10T12:59:06.286Z,9.54
2016-02-10T13:00:06.992Z,9.64
2016-02-10T13:01:07.089Z,9.58
2016-02-10T13:02:06.248Z,9.53
2016-02-10T13:03:06.252Z,9.53
2016-02-10T13:04:06.535Z,9.56
2016-02-10T13:05:06.584Z,9.53
2016-02-10T13:06:06.650Z,9.5
2016-02-10T13:07:06.543Z,9.48
2016-02-10T13:08:06.592Z,9.4
2016-02-10T13:09:06.751Z,9.35
2016-02-10T13:10:06.491Z,9.31
2016-02-10T13:11:06.666Z,9.23
2016-02-10T13:12:06.558Z,9.15
2016-02-10T13:13:05.811Z,9.13
2016-02-10T13:14:06.502Z,8.96
2016-02-10T13:15:06.520Z,8.98
2016-02-10T13:16:06.366Z,8.99
2016-02-10T13:17:06.541Z,8.94
2016-02-10T13:18:06.497Z,9.02
2016-02-10T13:19:06.656Z,8.87
2016-02-10T13:20:06.597Z,8.91
2016-02-10T13:21:06.616Z,8.87
2016-02-10T13:22:06.539Z,8.92